sensor_id;sensor_type;location;lat;lon;timestamp;P1;durP1;ratioP1;P2;durP2;ratioP2
20458;SDS011;10388;52.314;7.938;2022-09-09T01:21:04;3.27;;;2.90;;
20458;SDS011;10388;52.314;7.938;2022-09-09T01:24:04;4.10;;;3.03;;
20458;SDS011;10388;52.314;7.938;2022-09-09T01:27:34;4.50;;;2.87;;
20458;SDS011;10388;52.314;7.938;2022-09-09T01:30:13;3.60;;;2.90;;
20458;SDS011;10388;52.314;7.938;2022-09-09T01:42:05;5.83;;;2.90;;
20458;SDS011;10388;52.314;7.938;2022-09-09T01:45:04;5.30;;;3.10;;
20458;SDS011;10388;52.314;7.938;2022-09-09T01:55:01;5.70;;;3.10;;
20458;SDS011;10388;52.314;7.938;2022-09-09T02:00:40;5.20;;;3.20;;
20458;SDS011;10388;52.314;7.938;2022-09-09T02:03:47;5.70;;;3.33;;
20458;SDS011;10388;52.314;7.938;2022-09-09T02:09:28;4.57;;;2.73;;
20458;SDS011;10388;52.314;7.938;2022-09-09T02:12:16;4.70;;;2.40;;
20458;SDS011;10388;52.314;7.938;2022-09-09T02:18:33;5.37;;;2.60;;
20458;SDS011;10388;52.314;7.938;2022-09-09T02:21:28;3.87;;;2.63;;
20458;SDS011;10388;52.314;7.938;2022-09-09T02:24:29;5.83;;;3.10;;
20458;SDS011;10388;52.314;7.938;2022-09-09T02:27:49;6.47;;;3.37;;
20458;SDS011;10388;52.314;7.938;2022-09-09T02:30:49;3.03;;;2.30;;
20458;SDS011;10388;52.314;7.938;2022-09-09T02:34:00;6.43;;;2.80;;
20458;SDS011;10388;52.314;7.938;2022-09-09T02:40:07;4.90;;;2.80;;
20458;SDS011;10388;52.314;7.938;2022-09-09T02:43:49;4.03;;;2.60;;
20458;SDS011;10388;52.314;7.938;2022-09-09T02:46:58;4.70;;;2.30;;
20458;SDS011;10388;52.314;7.938;2022-09-09T02:56:32;4.03;;;2.23;;
20458;SDS011;10388;52.314;7.938;2022-09-09T03:02:29;2.50;;;2.13;;
20458;SDS011;10388;52.314;7.938;2022-09-09T03:05:25;4.90;;;2.17;;
20458;SDS011;10388;52.314;7.938;2022-09-09T03:12:01;3.97;;;2.30;;
20458;SDS011;10388;52.314;7.938;2022-09-09T03:18:29;2.80;;;2.30;;
20458;SDS011;10388;52.314;7.938;2022-09-09T03:21:35;3.17;;;2.73;;
20458;SDS011;10388;52.314;7.938;2022-09-09T03:24:46;4.97;;;3.00;;
20458;SDS011;10388;52.314;7.938;2022-09-09T03:27:59;3.13;;;2.70;;
20458;SDS011;10388;52.314;7.938;2022-09-09T03:31:01;2.60;;;2.40;;
20458;SDS011;10388;52.314;7.938;2022-09-09T03:34:07;3.83;;;2.80;;
20458;SDS011;10388;52.314;7.938;2022-09-09T03:40:30;3.50;;;2.90;;
20458;SDS011;10388;52.314;7.938;2022-09-09T03:43:36;9.27;;;3.37;;
20458;SDS011;10388;52.314;7.938;2022-09-09T03:46:27;4.77;;;3.20;;
20458;SDS011;10388;52.314;7.938;2022-09-09T03:49:48;3.77;;;2.87;;
20458;SDS011;10388;52.314;7.938;2022-09-09T03:52:43;5.93;;;3.00;;
20458;SDS011;10388;52.314;7.938;2022-09-09T03:59:08;9.60;;;3.93;;
20458;SDS011;10388;52.314;7.938;2022-09-09T04:05:05;4.27;;;2.80;;
20458;SDS011;10388;52.314;7.938;2022-09-09T04:07:36;4.10;;;2.90;;
20458;SDS011;10388;52.314;7.938;2022-09-09T04:10:07;4.40;;;2.60;;
20458;SDS011;10388;52.314;7.938;2022-09-09T04:12:38;6.73;;;3.00;;
20458;SDS011;10388;52.314;7.938;2022-09-09T04:15:09;4.53;;;2.87;;
20458;SDS011;10388;52.314;7.938;2022-09-09T04:17:40;4.80;;;3.20;;
20458;SDS011;10388;52.314;7.938;2022-09-09T04:20:11;6.00;;;3.03;;
20458;SDS011;10388;52.314;7.938;2022-09-09T04:22:42;3.90;;;2.97;;
20458;SDS011;10388;52.314;7.938;2022-09-09T04:25:12;4.50;;;2.93;;
20458;SDS011;10388;52.314;7.938;2022-09-09T04:27:43;3.07;;;2.47;;
20458;SDS011;10388;52.314;7.938;2022-09-09T04:30:14;3.27;;;2.90;;
20458;SDS011;10388;52.314;7.938;2022-09-09T04:32:44;6.57;;;3.40;;
20458;SDS011;10388;52.314;7.938;2022-09-09T04:35:15;3.10;;;2.70;;
20458;SDS011;10388;52.314;7.938;2022-09-09T04:37:46;4.00;;;3.03;;
20458;SDS011;10388;52.314;7.938;2022-09-09T04:40:17;6.23;;;2.67;;
20458;SDS011;10388;52.314;7.938;2022-09-09T04:42:48;4.37;;;3.13;;
20458;SDS011;10388;52.314;7.938;2022-09-09T04:45:19;3.00;;;2.67;;
20458;SDS011;10388;52.314;7.938;2022-09-09T04:47:50;4.60;;;3.23;;
20458;SDS011;10388;52.314;7.938;2022-09-09T04:50:20;5.50;;;3.80;;
20458;SDS011;10388;52.314;7.938;2022-09-09T04:52:51;5.50;;;3.40;;
20458;SDS011;10388;52.314;7.938;2022-09-09T04:55:21;5.80;;;3.50;;
20458;SDS011;10388;52.314;7.938;2022-09-09T04:57:52;3.90;;;3.50;;
20458;SDS011;10388;52.314;7.938;2022-09-09T05:00:24;4.00;;;3.60;;
20458;SDS011;10388;52.314;7.938;2022-09-09T05:02:54;6.50;;;4.20;;
20458;SDS011;10388;52.314;7.938;2022-09-09T05:05:25;6.43;;;4.13;;
20458;SDS011;10388;52.314;7.938;2022-09-09T05:08:00;5.37;;;4.67;;
20458;SDS011;10388;52.314;7.938;2022-09-09T05:10:36;6.77;;;4.33;;
20458;SDS011;10388;52.314;7.938;2022-09-09T05:13:07;7.20;;;4.10;;
20458;SDS011;10388;52.314;7.938;2022-09-09T05:15:38;7.37;;;4.30;;
20458;SDS011;10388;52.314;7.938;2022-09-09T05:18:08;4.63;;;4.10;;
20458;SDS011;10388;52.314;7.938;2022-09-09T05:20:39;5.67;;;3.80;;
20458;SDS011;10388;52.314;7.938;2022-09-09T05:23:09;5.93;;;3.93;;
20458;SDS011;10388;52.314;7.938;2022-09-09T05:25:43;4.77;;;3.87;;
20458;SDS011;10388;52.314;7.938;2022-09-09T05:28:13;4.10;;;3.60;;
20458;SDS011;10388;52.314;7.938;2022-09-09T05:30:44;4.00;;;3.60;;
20458;SDS011;10388;52.314;7.938;2022-09-09T05:33:15;6.30;;;3.70;;
20458;SDS011;10388;52.314;7.938;2022-09-09T05:35:45;5.73;;;3.90;;
20458;SDS011;10388;52.314;7.938;2022-09-09T05:38:16;4.00;;;3.40;;
20458;SDS011;10388;52.314;7.938;2022-09-09T05:40:48;4.47;;;4.03;;
20458;SDS011;10388;52.314;7.938;2022-09-09T05:43:20;6.57;;;3.60;;
20458;SDS011;10388;52.314;7.938;2022-09-09T05:46:00;7.00;;;3.10;;
20458;SDS011;10388;52.314;7.938;2022-09-09T05:48:42;6.53;;;3.50;;
20458;SDS011;10388;52.314;7.938;2022-09-09T05:51:19;4.17;;;3.67;;
20458;SDS011;10388;52.314;7.938;2022-09-09T05:53:52;5.30;;;3.37;;
20458;SDS011;10388;52.314;7.938;2022-09-09T05:56:23;4.10;;;2.83;;
20458;SDS011;10388;52.314;7.938;2022-09-09T05:58:55;4.23;;;2.90;;
20458;SDS011;10388;52.314;7.938;2022-09-09T06:01:30;3.73;;;2.80;;
20458;SDS011;10388;52.314;7.938;2022-09-09T06:04:02;4.83;;;2.97;;
20458;SDS011;10388;52.314;7.938;2022-09-09T06:06:34;4.43;;;2.80;;
20458;SDS011;10388;52.314;7.938;2022-09-09T06:09:07;3.97;;;2.73;;
20458;SDS011;10388;52.314;7.938;2022-09-09T06:11:40;6.37;;;2.77;;
20458;SDS011;10388;52.314;7.938;2022-09-09T06:14:11;3.30;;;2.77;;
20458;SDS011;10388;52.314;7.938;2022-09-09T06:16:41;4.20;;;2.40;;
20458;SDS011;10388;52.314;7.938;2022-09-09T06:19:13;3.47;;;2.30;;
20458;SDS011;10388;52.314;7.938;2022-09-09T06:21:44;4.37;;;2.30;;
20458;SDS011;10388;52.314;7.938;2022-09-09T06:24:15;3.00;;;2.23;;
20458;SDS011;10388;52.314;7.938;2022-09-09T06:26:47;4.80;;;2.63;;
20458;SDS011;10388;52.314;7.938;2022-09-09T06:29:17;3.50;;;2.30;;
20458;SDS011;10388;52.314;7.938;2022-09-09T06:31:48;4.33;;;2.50;;
20458;SDS011;10388;52.314;7.938;2022-09-09T06:34:19;3.67;;;2.10;;
20458;SDS011;10388;52.314;7.938;2022-09-09T06:36:49;8.23;;;2.40;;
20458;SDS011;10388;52.314;7.938;2022-09-09T06:39:21;5.00;;;2.80;;
20458;SDS011;10388;52.314;7.938;2022-09-09T06:41:52;3.40;;;2.27;;
20458;SDS011;10388;52.314;7.938;2022-09-09T06:44:23;3.30;;;2.23;;
20458;SDS011;10388;52.314;7.938;2022-09-09T06:46:54;6.70;;;2.30;;
20458;SDS011;10388;52.314;7.938;2022-09-09T06:49:25;4.00;;;2.33;;
20458;SDS011;10388;52.314;7.938;2022-09-09T06:51:55;6.07;;;2.60;;
20458;SDS011;10388;52.314;7.938;2022-09-09T06:54:26;6.33;;;2.43;;
20458;SDS011;10388;52.314;7.938;2022-09-09T06:56:56;5.60;;;2.07;;
20458;SDS011;10388;52.314;7.938;2022-09-09T06:59:27;4.77;;;2.27;;
20458;SDS011;10388;52.314;7.938;2022-09-09T07:01:58;4.60;;;2.00;;
20458;SDS011;10388;52.314;7.938;2022-09-09T07:04:28;6.03;;;2.00;;
20458;SDS011;10388;52.314;7.938;2022-09-09T07:06:59;3.17;;;2.10;;
20458;SDS011;10388;52.314;7.938;2022-09-09T07:09:30;5.20;;;2.40;;
20458;SDS011;10388;52.314;7.938;2022-09-09T07:12:04;3.17;;;2.50;;
20458;SDS011;10388;52.314;7.938;2022-09-09T07:14:36;8.20;;;2.70;;
20458;SDS011;10388;52.314;7.938;2022-09-09T07:17:07;5.07;;;2.33;;
20458;SDS011;10388;52.314;7.938;2022-09-09T07:19:38;4.73;;;2.10;;
20458;SDS011;10388;52.314;7.938;2022-09-09T07:22:08;4.43;;;2.00;;
20458;SDS011;10388;52.314;7.938;2022-09-09T07:24:40;5.20;;;2.10;;
20458;SDS011;10388;52.314;7.938;2022-09-09T07:27:11;6.07;;;2.13;;
20458;SDS011;10388;52.314;7.938;2022-09-09T07:29:41;5.70;;;1.87;;
20458;SDS011;10388;52.314;7.938;2022-09-09T07:32:15;4.63;;;2.27;;
20458;SDS011;10388;52.314;7.938;2022-09-09T07:34:46;4.33;;;2.20;;
20458;SDS011;10388;52.314;7.938;2022-09-09T07:37:17;3.43;;;1.80;;
20458;SDS011;10388;52.314;7.938;2022-09-09T07:39:47;5.77;;;2.50;;
20458;SDS011;10388;52.314;7.938;2022-09-09T07:42:18;10.50;;;2.67;;
20458;SDS011;10388;52.314;7.938;2022-09-09T07:44:49;5.73;;;2.37;;
20458;SDS011;10388;52.314;7.938;2022-09-09T07:47:19;5.07;;;2.30;;
20458;SDS011;10388;52.314;7.938;2022-09-09T07:49:50;4.40;;;1.90;;
20458;SDS011;10388;52.314;7.938;2022-09-09T07:52:21;4.30;;;2.27;;
20458;SDS011;10388;52.314;7.938;2022-09-09T07:54:51;8.73;;;2.23;;
20458;SDS011;10388;52.314;7.938;2022-09-09T07:57:22;5.37;;;1.97;;
20458;SDS011;10388;52.314;7.938;2022-09-09T07:59:53;4.70;;;1.93;;
20458;SDS011;10388;52.314;7.938;2022-09-09T08:02:24;5.80;;;2.00;;
20458;SDS011;10388;52.314;7.938;2022-09-09T08:04:55;5.70;;;2.20;;
20458;SDS011;10388;52.314;7.938;2022-09-09T08:07:26;4.60;;;1.83;;
20458;SDS011;10388;52.314;7.938;2022-09-09T08:09:57;3.37;;;1.63;;
20458;SDS011;10388;52.314;7.938;2022-09-09T08:12:28;3.13;;;2.00;;
20458;SDS011;10388;52.314;7.938;2022-09-09T08:14:58;5.77;;;2.00;;
20458;SDS011;10388;52.314;7.938;2022-09-09T08:17:29;4.53;;;2.27;;
20458;SDS011;10388;52.314;7.938;2022-09-09T08:19:59;3.60;;;1.60;;
20458;SDS011;10388;52.314;7.938;2022-09-09T08:22:34;4.23;;;1.97;;
20458;SDS011;10388;52.314;7.938;2022-09-09T08:25:07;4.93;;;1.93;;
20458;SDS011;10388;52.314;7.938;2022-09-09T08:27:40;4.87;;;1.77;;
20458;SDS011;10388;52.314;7.938;2022-09-09T08:30:10;5.30;;;1.80;;
20458;SDS011;10388;52.314;7.938;2022-09-09T08:32:41;7.00;;;1.93;;
20458;SDS011;10388;52.314;7.938;2022-09-09T08:35:13;7.97;;;2.07;;
20458;SDS011;10388;52.314;7.938;2022-09-09T08:37:43;7.13;;;2.07;;
20458;SDS011;10388;52.314;7.938;2022-09-09T08:40:17;3.90;;;1.67;;
20458;SDS011;10388;52.314;7.938;2022-09-09T08:42:56;2.57;;;1.53;;
20458;SDS011;10388;52.314;7.938;2022-09-09T08:45:31;4.53;;;1.80;;
20458;SDS011;10388;52.314;7.938;2022-09-09T08:48:24;4.40;;;1.83;;
20458;SDS011;10388;52.314;7.938;2022-09-09T08:51:14;3.93;;;1.70;;
20458;SDS011;10388;52.314;7.938;2022-09-09T08:53:46;3.20;;;1.40;;
20458;SDS011;10388;52.314;7.938;2022-09-09T08:56:21;6.60;;;1.80;;
20458;SDS011;10388;52.314;7.938;2022-09-09T08:58:54;4.30;;;1.60;;
20458;SDS011;10388;52.314;7.938;2022-09-09T09:06:58;3.53;;;1.90;;
20458;SDS011;10388;52.314;7.938;2022-09-09T09:09:57;6.80;;;2.00;;
20458;SDS011;10388;52.314;7.938;2022-09-09T09:12:38;3.70;;;1.73;;
20458;SDS011;10388;52.314;7.938;2022-09-09T09:15:25;4.77;;;1.83;;
20458;SDS011;10388;52.314;7.938;2022-09-09T09:17:58;4.63;;;2.00;;
20458;SDS011;10388;52.314;7.938;2022-09-09T09:20:35;7.60;;;2.40;;
20458;SDS011;10388;52.314;7.938;2022-09-09T09:23:25;5.60;;;1.97;;
20458;SDS011;10388;52.314;7.938;2022-09-09T09:26:00;7.17;;;2.03;;
20458;SDS011;10388;52.314;7.938;2022-09-09T09:28:31;7.47;;;2.13;;
20458;SDS011;10388;52.314;7.938;2022-09-09T09:31:06;4.17;;;2.30;;
20458;SDS011;10388;52.314;7.938;2022-09-09T09:36:20;4.20;;;1.60;;
20458;SDS011;10388;52.314;7.938;2022-09-09T09:39:03;4.90;;;2.00;;
20458;SDS011;10388;52.314;7.938;2022-09-09T09:41:36;3.47;;;1.80;;
20458;SDS011;10388;52.314;7.938;2022-09-09T09:47:19;3.30;;;2.27;;
20458;SDS011;10388;52.314;7.938;2022-09-09T09:49:54;6.00;;;2.77;;
20458;SDS011;10388;52.314;7.938;2022-09-09T09:52:27;7.37;;;2.80;;
20458;SDS011;10388;52.314;7.938;2022-09-09T09:54:59;6.10;;;2.40;;
20458;SDS011;10388;52.314;7.938;2022-09-09T09:57:33;4.90;;;2.37;;
20458;SDS011;10388;52.314;7.938;2022-09-09T10:00:15;2.67;;;2.30;;
20458;SDS011;10388;52.314;7.938;2022-09-09T10:02:48;3.27;;;2.30;;
20458;SDS011;10388;52.314;7.938;2022-09-09T10:05:22;2.73;;;1.90;;
20458;SDS011;10388;52.314;7.938;2022-09-09T10:08:02;3.90;;;2.13;;
20458;SDS011;10388;52.314;7.938;2022-09-09T10:14:11;4.43;;;2.10;;
20458;SDS011;10388;52.314;7.938;2022-09-09T10:22:39;6.03;;;1.90;;
20458;SDS011;10388;52.314;7.938;2022-09-09T10:25:22;5.20;;;2.33;;
20458;SDS011;10388;52.314;7.938;2022-09-09T10:36:36;6.97;;;2.73;;
20458;SDS011;10388;52.314;7.938;2022-09-09T10:39:30;6.40;;;2.20;;
20458;SDS011;10388;52.314;7.938;2022-09-09T10:42:16;5.27;;;2.10;;
20458;SDS011;10388;52.314;7.938;2022-09-09T10:53:08;7.00;;;1.90;;
20458;SDS011;10388;52.314;7.938;2022-09-09T10:56:09;5.33;;;1.70;;
20458;SDS011;10388;52.314;7.938;2022-09-09T10:58:55;3.97;;;1.73;;
20458;SDS011;10388;52.314;7.938;2022-09-09T11:02:19;4.40;;;1.90;;
20458;SDS011;10388;52.314;7.938;2022-09-09T11:04:39;4.27;;;1.43;;
20458;SDS011;10388;52.314;7.938;2022-09-09T11:07:15;3.53;;;1.53;;
20458;SDS011;10388;52.314;7.938;2022-09-09T11:09:58;3.47;;;1.43;;
20458;SDS011;10388;52.314;7.938;2022-09-09T11:12:33;4.67;;;1.90;;
20458;SDS011;10388;52.314;7.938;2022-09-09T11:17:53;4.60;;;1.47;;
20458;SDS011;10388;52.314;7.938;2022-09-09T11:20:28;5.30;;;1.90;;
20458;SDS011;10388;52.314;7.938;2022-09-09T11:23:03;3.13;;;1.63;;
20458;SDS011;10388;52.314;7.938;2022-09-09T11:25:44;4.10;;;1.50;;
20458;SDS011;10388;52.314;7.938;2022-09-09T11:34:27;2.43;;;1.20;;
20458;SDS011;10388;52.314;7.938;2022-09-09T11:37:15;2.60;;;1.20;;
20458;SDS011;10388;52.314;7.938;2022-09-09T11:40:08;1.57;;;1.00;;
20458;SDS011;10388;52.314;7.938;2022-09-09T11:46:02;3.23;;;1.07;;
20458;SDS011;10388;52.314;7.938;2022-09-09T11:48:35;3.37;;;1.23;;
20458;SDS011;10388;52.314;7.938;2022-09-09T11:51:07;3.57;;;1.10;;
20458;SDS011;10388;52.314;7.938;2022-09-09T11:56:55;4.67;;;1.37;;
20458;SDS011;10388;52.314;7.938;2022-09-09T11:59:27;4.83;;;1.37;;
20458;SDS011;10388;52.314;7.938;2022-09-09T12:02:22;2.17;;;1.20;;
20458;SDS011;10388;52.314;7.938;2022-09-09T12:05:01;1.87;;;1.13;;
20458;SDS011;10388;52.314;7.938;2022-09-09T12:07:56;2.30;;;1.37;;
20458;SDS011;10388;52.314;7.938;2022-09-09T12:10:32;4.57;;;1.20;;
20458;SDS011;10388;52.314;7.938;2022-09-09T12:13:19;1.93;;;1.00;;
20458;SDS011;10388;52.314;7.938;2022-09-09T12:15:53;1.87;;;0.90;;
20458;SDS011;10388;52.314;7.938;2022-09-09T12:18:26;1.10;;;0.70;;
20458;SDS011;10388;52.314;7.938;2022-09-09T12:23:52;0.73;;;0.70;;
20458;SDS011;10388;52.314;7.938;2022-09-09T12:26:48;4.33;;;0.90;;
20458;SDS011;10388;52.314;7.938;2022-09-09T12:32:28;1.53;;;1.00;;
20458;SDS011;10388;52.314;7.938;2022-09-09T12:35:02;2.17;;;1.10;;
20458;SDS011;10388;52.314;7.938;2022-09-09T12:37:51;2.23;;;1.23;;
20458;SDS011;10388;52.314;7.938;2022-09-09T12:40:27;4.50;;;1.83;;
20458;SDS011;10388;52.314;7.938;2022-09-09T12:42:59;3.83;;;1.60;;
20458;SDS011;10388;52.314;7.938;2022-09-09T12:45:31;1.80;;;1.13;;
20458;SDS011;10388;52.314;7.938;2022-09-09T12:48:03;3.00;;;1.60;;
20458;SDS011;10388;52.314;7.938;2022-09-09T12:50:36;2.53;;;1.50;;
20458;SDS011;10388;52.314;7.938;2022-09-09T12:53:25;2.10;;;1.60;;
20458;SDS011;10388;52.314;7.938;2022-09-09T12:56:06;5.10;;;2.10;;
20458;SDS011;10388;52.314;7.938;2022-09-09T12:58:48;5.13;;;1.87;;
20458;SDS011;10388;52.314;7.938;2022-09-09T13:01:25;3.50;;;1.67;;
20458;SDS011;10388;52.314;7.938;2022-09-09T13:04:00;4.87;;;2.00;;
20458;SDS011;10388;52.314;7.938;2022-09-09T13:06:32;3.00;;;2.07;;
20458;SDS011;10388;52.314;7.938;2022-09-09T13:09:04;2.97;;;1.70;;
20458;SDS011;10388;52.314;7.938;2022-09-09T13:11:41;4.10;;;1.70;;
20458;SDS011;10388;52.314;7.938;2022-09-09T13:14:21;3.50;;;1.90;;
20458;SDS011;10388;52.314;7.938;2022-09-09T13:17:00;2.27;;;1.87;;
20458;SDS011;10388;52.314;7.938;2022-09-09T13:19:36;2.80;;;1.80;;
20458;SDS011;10388;52.314;7.938;2022-09-09T13:22:12;2.63;;;1.70;;
20458;SDS011;10388;52.314;7.938;2022-09-09T13:25:05;2.57;;;1.67;;
20458;SDS011;10388;52.314;7.938;2022-09-09T13:30:33;3.27;;;1.57;;
20458;SDS011;10388;52.314;7.938;2022-09-09T13:38:38;4.73;;;1.70;;
20458;SDS011;10388;52.314;7.938;2022-09-09T13:41:24;4.17;;;1.20;;
20458;SDS011;10388;52.314;7.938;2022-09-09T13:44:05;3.23;;;1.10;;
20458;SDS011;10388;52.314;7.938;2022-09-09T13:46:39;2.93;;;1.40;;
20458;SDS011;10388;52.314;7.938;2022-09-09T13:51:42;2.30;;;0.97;;
20458;SDS011;10388;52.314;7.938;2022-09-09T13:54:19;2.57;;;0.97;;
20458;SDS011;10388;52.314;7.938;2022-09-09T13:56:50;1.83;;;1.00;;
20458;SDS011;10388;52.314;7.938;2022-09-09T13:59:21;1.80;;;0.80;;
20458;SDS011;10388;52.314;7.938;2022-09-09T14:01:52;3.13;;;1.27;;
20458;SDS011;10388;52.314;7.938;2022-09-09T14:04:23;2.90;;;1.03;;
20458;SDS011;10388;52.314;7.938;2022-09-09T14:06:54;2.00;;;0.90;;
20458;SDS011;10388;52.314;7.938;2022-09-09T14:09:25;2.40;;;1.10;;
20458;SDS011;10388;52.314;7.938;2022-09-09T14:11:56;2.83;;;0.90;;
20458;SDS011;10388;52.314;7.938;2022-09-09T14:14:26;2.70;;;1.03;;
20458;SDS011;10388;52.314;7.938;2022-09-09T14:16:57;3.47;;;1.30;;
20458;SDS011;10388;52.314;7.938;2022-09-09T14:22:00;1.93;;;1.10;;
20458;SDS011;10388;52.314;7.938;2022-09-09T14:24:31;1.90;;;1.00;;
20458;SDS011;10388;52.314;7.938;2022-09-09T14:27:03;2.30;;;1.10;;
20458;SDS011;10388;52.314;7.938;2022-09-09T14:29:33;1.63;;;0.90;;
20458;SDS011;10388;52.314;7.938;2022-09-09T14:32:04;2.33;;;1.00;;
20458;SDS011;10388;52.314;7.938;2022-09-09T14:34:34;1.57;;;0.80;;
20458;SDS011;10388;52.314;7.938;2022-09-09T14:37:05;2.07;;;0.70;;
20458;SDS011;10388;52.314;7.938;2022-09-09T14:39:36;2.93;;;0.60;;
20458;SDS011;10388;52.314;7.938;2022-09-09T14:42:06;1.63;;;0.60;;
20458;SDS011;10388;52.314;7.938;2022-09-09T14:44:37;2.47;;;0.70;;
20458;SDS011;10388;52.314;7.938;2022-09-09T14:47:11;1.27;;;0.70;;
20458;SDS011;10388;52.314;7.938;2022-09-09T14:49:41;1.77;;;1.10;;
20458;SDS011;10388;52.314;7.938;2022-09-09T14:52:13;0.80;;;0.80;;
20458;SDS011;10388;52.314;7.938;2022-09-09T14:54:43;1.10;;;1.00;;
20458;SDS011;10388;52.314;7.938;2022-09-09T14:57:14;1.83;;;0.93;;
20458;SDS011;10388;52.314;7.938;2022-09-09T14:59:44;2.10;;;1.10;;
20458;SDS011;10388;52.314;7.938;2022-09-09T15:02:15;1.17;;;0.90;;
20458;SDS011;10388;52.314;7.938;2022-09-09T15:04:46;1.00;;;0.90;;
20458;SDS011;10388;52.314;7.938;2022-09-09T15:07:16;1.33;;;1.10;;
20458;SDS011;10388;52.314;7.938;2022-09-09T15:09:49;0.87;;;0.87;;
20458;SDS011;10388;52.314;7.938;2022-09-09T15:12:20;1.47;;;1.03;;
20458;SDS011;10388;52.314;7.938;2022-09-09T15:14:50;1.13;;;0.90;;
20458;SDS011;10388;52.314;7.938;2022-09-09T15:17:22;1.40;;;0.97;;
20458;SDS011;10388;52.314;7.938;2022-09-09T15:19:54;1.90;;;1.10;;
20458;SDS011;10388;52.314;7.938;2022-09-09T15:22:24;2.73;;;1.17;;
20458;SDS011;10388;52.314;7.938;2022-09-09T15:24:55;3.00;;;1.23;;
20458;SDS011;10388;52.314;7.938;2022-09-09T15:27:26;1.40;;;1.30;;
20458;SDS011;10388;52.314;7.938;2022-09-09T15:29:56;2.40;;;1.40;;
20458;SDS011;10388;52.314;7.938;2022-09-09T15:32:28;2.50;;;1.07;;
20458;SDS011;10388;52.314;7.938;2022-09-09T15:34:59;1.83;;;1.30;;
20458;SDS011;10388;52.314;7.938;2022-09-09T15:37:29;3.27;;;1.20;;
20458;SDS011;10388;52.314;7.938;2022-09-09T15:39:59;3.00;;;1.43;;
20458;SDS011;10388;52.314;7.938;2022-09-09T15:42:30;1.30;;;1.20;;
20458;SDS011;10388;52.314;7.938;2022-09-09T15:45:01;2.90;;;1.33;;
20458;SDS011;10388;52.314;7.938;2022-09-09T15:47:33;1.70;;;1.23;;
20458;SDS011;10388;52.314;7.938;2022-09-09T15:50:03;3.00;;;1.30;;
20458;SDS011;10388;52.314;7.938;2022-09-09T15:52:34;1.30;;;1.10;;
20458;SDS011;10388;52.314;7.938;2022-09-09T15:55:05;1.17;;;1.03;;
20458;SDS011;10388;52.314;7.938;2022-09-09T15:57:36;4.20;;;1.20;;
20458;SDS011;10388;52.314;7.938;2022-09-09T16:00:06;3.57;;;1.27;;
20458;SDS011;10388;52.314;7.938;2022-09-09T16:02:38;1.57;;;1.23;;
20458;SDS011;10388;52.314;7.938;2022-09-09T16:05:08;1.50;;;1.20;;
20458;SDS011;10388;52.314;7.938;2022-09-09T16:07:39;2.53;;;1.00;;
20458;SDS011;10388;52.314;7.938;2022-09-09T16:10:10;1.80;;;1.00;;
20458;SDS011;10388;52.314;7.938;2022-09-09T16:12:41;1.70;;;0.93;;
20458;SDS011;10388;52.314;7.938;2022-09-09T16:15:11;3.17;;;1.00;;
20458;SDS011;10388;52.314;7.938;2022-09-09T16:17:42;1.67;;;1.10;;
20458;SDS011;10388;52.314;7.938;2022-09-09T16:20:14;4.73;;;1.30;;
20458;SDS011;10388;52.314;7.938;2022-09-09T16:22:45;3.40;;;1.00;;
20458;SDS011;10388;52.314;7.938;2022-09-09T16:25:15;3.53;;;1.10;;
20458;SDS011;10388;52.314;7.938;2022-09-09T16:27:46;3.17;;;0.97;;
20458;SDS011;10388;52.314;7.938;2022-09-09T16:30:16;7.07;;;1.10;;
20458;SDS011;10388;52.314;7.938;2022-09-09T16:32:47;2.07;;;1.07;;
20458;SDS011;10388;52.314;7.938;2022-09-09T16:35:17;2.03;;;1.03;;
20458;SDS011;10388;52.314;7.938;2022-09-09T16:37:49;2.40;;;1.10;;
20458;SDS011;10388;52.314;7.938;2022-09-09T16:40:19;3.07;;;1.20;;
20458;SDS011;10388;52.314;7.938;2022-09-09T16:42:50;1.53;;;1.07;;
20458;SDS011;10388;52.314;7.938;2022-09-09T16:45:21;1.70;;;1.00;;
20458;SDS011;10388;52.314;7.938;2022-09-09T16:47:52;1.30;;;1.20;;
20458;SDS011;10388;52.314;7.938;2022-09-09T16:50:23;1.03;;;0.93;;
20458;SDS011;10388;52.314;7.938;2022-09-09T16:52:53;1.23;;;1.00;;
20458;SDS011;10388;52.314;7.938;2022-09-09T16:55:24;1.03;;;0.90;;
20458;SDS011;10388;52.314;7.938;2022-09-09T16:57:56;1.50;;;1.00;;
20458;SDS011;10388;52.314;7.938;2022-09-09T17:00:26;2.67;;;1.03;;
20458;SDS011;10388;52.314;7.938;2022-09-09T17:02:57;1.83;;;0.90;;
20458;SDS011;10388;52.314;7.938;2022-09-09T17:05:28;2.90;;;1.13;;
20458;SDS011;10388;52.314;7.938;2022-09-09T17:07:59;1.83;;;1.20;;
20458;SDS011;10388;52.314;7.938;2022-09-09T17:10:30;1.83;;;1.10;;
20458;SDS011;10388;52.314;7.938;2022-09-09T17:13:00;2.50;;;1.27;;
20458;SDS011;10388;52.314;7.938;2022-09-09T17:15:31;1.60;;;1.10;;
20458;SDS011;10388;52.314;7.938;2022-09-09T17:18:02;3.93;;;1.20;;
20458;SDS011;10388;52.314;7.938;2022-09-09T17:20:34;1.87;;;1.10;;
20458;SDS011;10388;52.314;7.938;2022-09-09T17:23:10;3.07;;;1.10;;
20458;SDS011;10388;52.314;7.938;2022-09-09T17:25:43;3.33;;;1.33;;
20458;SDS011;10388;52.314;7.938;2022-09-09T17:28:14;2.70;;;1.13;;
20458;SDS011;10388;52.314;7.938;2022-09-09T17:30:45;4.37;;;1.30;;
20458;SDS011;10388;52.314;7.938;2022-09-09T17:33:17;6.00;;;1.70;;
20458;SDS011;10388;52.314;7.938;2022-09-09T17:35:47;2.70;;;1.30;;
20458;SDS011;10388;52.314;7.938;2022-09-09T17:38:19;2.37;;;0.90;;
20458;SDS011;10388;52.314;7.938;2022-09-09T17:40:49;2.30;;;1.00;;
20458;SDS011;10388;52.314;7.938;2022-09-09T17:43:20;2.50;;;0.90;;
20458;SDS011;10388;52.314;7.938;2022-09-09T17:45:51;1.83;;;1.17;;
20458;SDS011;10388;52.314;7.938;2022-09-09T17:48:22;2.77;;;1.30;;
20458;SDS011;10388;52.314;7.938;2022-09-09T17:50:59;2.87;;;1.33;;
20458;SDS011;10388;52.314;7.938;2022-09-09T17:53:30;3.07;;;1.27;;
20458;SDS011;10388;52.314;7.938;2022-09-09T17:56:02;3.77;;;1.47;;
20458;SDS011;10388;52.314;7.938;2022-09-09T17:58:37;3.80;;;1.40;;
20458;SDS011;10388;52.314;7.938;2022-09-09T18:01:10;2.50;;;1.63;;
20458;SDS011;10388;52.314;7.938;2022-09-09T18:03:42;3.27;;;1.67;;
20458;SDS011;10388;52.314;7.938;2022-09-09T18:06:15;2.93;;;1.30;;
20458;SDS011;10388;52.314;7.938;2022-09-09T18:08:49;2.40;;;1.50;;
20458;SDS011;10388;52.314;7.938;2022-09-09T18:11:22;2.60;;;1.63;;
20458;SDS011;10388;52.314;7.938;2022-09-09T18:13:55;1.70;;;1.60;;
20458;SDS011;10388;52.314;7.938;2022-09-09T18:16:30;3.73;;;1.73;;
20458;SDS011;10388;52.314;7.938;2022-09-09T18:19:06;2.60;;;1.83;;
20458;SDS011;10388;52.314;7.938;2022-09-09T18:21:38;2.30;;;2.10;;
20458;SDS011;10388;52.314;7.938;2022-09-09T18:24:10;4.53;;;2.37;;
20458;SDS011;10388;52.314;7.938;2022-09-09T18:26:43;4.50;;;2.27;;
20458;SDS011;10388;52.314;7.938;2022-09-09T18:29:16;5.27;;;2.47;;
20458;SDS011;10388;52.314;7.938;2022-09-09T18:31:48;3.77;;;2.73;;
20458;SDS011;10388;52.314;7.938;2022-09-09T18:34:20;5.83;;;2.90;;
20458;SDS011;10388;52.314;7.938;2022-09-09T18:36:52;4.40;;;2.63;;
20458;SDS011;10388;52.314;7.938;2022-09-09T18:39:25;3.20;;;2.70;;
20458;SDS011;10388;52.314;7.938;2022-09-09T18:41:59;3.97;;;2.60;;
20458;SDS011;10388;52.314;7.938;2022-09-09T18:44:32;3.37;;;2.40;;
20458;SDS011;10388;52.314;7.938;2022-09-09T18:47:04;2.37;;;2.17;;
20458;SDS011;10388;52.314;7.938;2022-09-09T18:49:36;5.20;;;2.20;;
20458;SDS011;10388;52.314;7.938;2022-09-09T18:52:07;3.90;;;2.20;;
20458;SDS011;10388;52.314;7.938;2022-09-09T18:54:37;2.93;;;2.00;;
20458;SDS011;10388;52.314;7.938;2022-09-09T18:57:10;4.70;;;1.77;;
20458;SDS011;10388;52.314;7.938;2022-09-09T18:59:41;4.27;;;1.60;;
20458;SDS011;10388;52.314;7.938;2022-09-09T19:02:12;3.43;;;1.93;;
20458;SDS011;10388;52.314;7.938;2022-09-09T19:04:42;1.73;;;1.30;;
20458;SDS011;10388;52.314;7.938;2022-09-09T19:07:13;2.07;;;1.47;;
20458;SDS011;10388;52.314;7.938;2022-09-09T19:09:43;2.47;;;1.40;;